createdAt,value
2017-04-06T00:00:17.842Z,63.6
2017-04-06T00:01:20.184Z,63.5
2017-04-06T00:02:23.037Z,63.5
2017-04-06T00:03:25.678Z,63.5
2017-04-06T00:04:28.018Z,63.6
2017-04-06T00:05:30.872Z,63.7
2017-04-06T00:06:33.725Z,63.8
2017-04-06T00:07:35.934Z,63.8
2017-04-06T00:08:39.030Z,63.9
2017-04-06T00:09:41.371Z,63.8
2017-04-06T00:10:44.086Z,63.7
2017-04-06T00:11:46.427Z,63.7
2017-04-06T00:12:49.269Z,63.7
2017-04-06T00:13:52.281Z,63.7
2017-04-06T00:14:54.621Z,63.7
2017-04-06T00:15:56.962Z,63.8
2017-04-06T00:16:59.807Z,63.7
2017-04-06T00:18:02.527Z,63.8
2017-04-06T00:19:05.172Z,63.8
2017-04-06T00:20:07.883Z,63.9
2017-04-06T00:21:10.223Z,63.8
2017-04-06T00:22:13.064Z,63.8
2017-04-06T00:23:15.405Z,63.8
2017-04-06T00:24:18.554Z,63.8
2017-04-06T00:26:23.326Z,64
2017-04-06T00:28:28.585Z,63.9
2017-04-06T00:29:31.727Z,64
2017-04-06T00:30:34.066Z,64
2017-04-06T00:31:36.410Z,64
2017-04-06T00:32:39.253Z,64.1
2017-04-06T00:33:41.594Z,64.2
2017-04-06T00:34:44.740Z,64.3
2017-04-06T00:35:47.085Z,64.3
2017-04-06T00:36:49.424Z,64.3
2017-04-06T00:37:52.266Z,64.4
2017-04-06T00:38:55.114Z,64.4
2017-04-06T00:39:57.765Z,64.5
2017-04-06T00:40:59.975Z,64.5
2017-04-06T00:42:02.839Z,64.6
2017-04-06T00:43:05.189Z,64.4
2017-04-06T00:44:08.029Z,64.5
2017-04-06T00:45:10.548Z,64.3
2017-04-06T00:46:13.392Z,63.9
2017-04-06T00:47:15.734Z,63.7
2017-04-06T00:48:18.577Z,63.8
2017-04-06T00:49:20.915Z,63.9
2017-04-06T00:50:24.010Z,63.8
2017-04-06T00:51:26.349Z,63.3
2017-04-06T00:52:29.201Z,62.8
2017-04-06T00:54:34.315Z,63.1
2017-04-06T00:55:36.955Z,63
2017-04-06T00:56:39.296Z,62.8
2017-04-06T00:57:42.147Z,62.4
2017-04-06T00:58:44.493Z,62
2017-04-06T00:59:47.339Z,62.2
2017-04-06T01:00:49.867Z,62.4
2017-04-06T01:01:52.442Z,62.3
2017-04-06T01:02:55.352Z,61.8
2017-04-06T01:03:57.694Z,61.8
2017-04-06T01:05:00.607Z,61.9
2017-04-06T01:06:03.204Z,61.8
2017-04-06T01:07:05.546Z,61.8
2017-04-06T01:08:08.393Z,61.7
2017-04-06T01:09:10.739Z,61.8
2017-04-06T01:10:13.582Z,62
2017-04-06T01:11:16.180Z,62
2017-04-06T01:12:18.526Z,62
2017-04-06T01:13:21.927Z,62.2
2017-04-06T01:14:23.764Z,62.2
2017-04-06T01:15:26.608Z,62.2
2017-04-06T01:16:29.756Z,62.4
2017-04-06T01:17:32.104Z,62.5
2017-04-06T01:18:34.447Z,62.6
2017-04-06T01:19:37.289Z,62.7
2017-04-06T01:20:39.628Z,62.7
2017-04-06T01:21:42.727Z,62.8
2017-04-06T01:22:45.069Z,62.9
2017-04-06T01:23:47.412Z,63
2017-04-06T01:25:52.664Z,63
2017-04-06T01:26:55.758Z,63
2017-04-06T01:27:58.102Z,63.1
2017-04-06T01:29:00.441Z,63.1
2017-04-06T01:30:03.287Z,63.1
2017-04-06T01:31:05.998Z,63.1
2017-04-06T01:32:08.642Z,63.3
2017-04-06T01:33:10.982Z,63.3
2017-04-06T01:34:13.802Z,63.3
2017-04-06T01:35:16.149Z,63.3
2017-04-06T01:36:19.243Z,63.5
2017-04-06T01:37:21.894Z,63.6
2017-04-06T01:38:24.232Z,63.6
2017-04-06T01:39:27.082Z,63.6
2017-04-06T01:40:29.423Z,63.6
2017-04-06T01:41:32.148Z,63.5
2017-04-06T01:42:34.796Z,63.7
2017-04-06T01:43:37.192Z,63.7
2017-04-06T01:44:40.036Z,63.4
2017-04-06T01:45:42.374Z,63.6
2017-04-06T01:46:45.217Z,63.6
2017-04-06T01:47:48.317Z,63.5
2017-04-06T01:48:50.656Z,63.6
2017-04-06T01:49:52.859Z,63.5
2017-04-06T01:50:55.705Z,63.7
2017-04-06T01:51:58.055Z,64.4
2017-04-06T01:53:01.157Z,64.8
2017-04-06T01:54:03.525Z,64.9
2017-04-06T01:55:06.372Z,65.1
2017-04-06T01:56:08.717Z,65.1
2017-04-06T01:57:11.430Z,64.9
2017-04-06T01:58:14.075Z,64.9
2017-04-06T01:59:16.419Z,64.5
2017-04-06T02:00:19.263Z,64.7
2017-04-06T02:01:21.978Z,64.9
2017-04-06T02:02:24.686Z,65.3
2017-04-06T02:03:27.332Z,65
2017-04-06T02:04:29.680Z,64.9
2017-04-06T02:05:32.523Z,65
2017-04-06T02:06:34.865Z,64.5
2017-04-06T02:07:37.634Z,64.6
2017-04-06T02:08:40.248Z,64.7
2017-04-06T02:09:42.597Z,64.5
2017-04-06T02:10:45.447Z,64.2
2017-04-06T02:11:48.162Z,64.4
2017-04-06T02:12:50.519Z,64.3
2017-04-06T02:13:53.628Z,64.3
2017-04-06T02:14:55.972Z,64.3
2017-04-06T02:15:58.686Z,64.4
2017-04-06T02:17:01.031Z,64.3
2017-04-06T02:18:03.964Z,64.3
2017-04-06T02:19:06.565Z,64.4
2017-04-06T02:20:08.911Z,64.5
2017-04-06T02:21:11.625Z,64.8
2017-04-06T02:22:14.477Z,65.2
2017-04-06T02:23:16.828Z,65.5
2017-04-06T02:24:19.931Z,65.7
2017-04-06T02:25:22.146Z,66
2017-04-06T02:26:24.863Z,66.3
2017-04-06T02:27:27.211Z,66.5
2017-04-06T02:29:32.637Z,67
2017-04-06T02:30:35.355Z,67.3
2017-04-06T02:31:37.701Z,67.4
2017-04-06T02:32:40.416Z,67.6
2017-04-06T02:33:42.766Z,67.7
2017-04-06T02:34:45.912Z,67.9
2017-04-06T02:35:48.261Z,68.2
2017-04-06T02:36:50.608Z,68.3
2017-04-06T02:37:53.457Z,68.5
2017-04-06T02:38:56.174Z,68.7
2017-04-06T02:39:59.007Z,68.9
2017-04-06T02:41:01.355Z,68.8
2017-04-06T02:42:03.729Z,68.7
2017-04-06T02:43:06.445Z,69.2
2017-04-06T02:44:09.291Z,69.1
2017-04-06T02:45:11.939Z,69
2017-04-06T02:46:14.284Z,69.2
2017-04-06T02:47:17.134Z,69.4
2017-04-06T02:48:19.478Z,69.5
2017-04-06T02:49:22.330Z,69.7
2017-04-06T02:50:24.925Z,69.8
2017-04-06T02:51:27.831Z,70
2017-04-06T02:52:30.172Z,69.8
2017-04-06T02:53:32.518Z,70.1
2017-04-06T02:54:35.234Z,70.7
2017-04-06T02:55:38.388Z,70.6
2017-04-06T02:57:43.142Z,70.7
2017-04-06T02:58:45.991Z,70.6
2017-04-06T02:59:48.337Z,70.7
2017-04-06T03:00:51.491Z,70.9
2017-04-06T03:01:53.336Z,70.9
2017-04-06T03:02:56.185Z,70.8
2017-04-06T03:03:59.036Z,71.1
2017-04-06T03:05:01.381Z,71.1
2017-04-06T03:06:04.486Z,71.1
2017-04-06T03:07:06.834Z,71.1
2017-04-06T03:08:09.208Z,71.1
2017-04-06T03:09:11.927Z,71.3
2017-04-06T03:10:14.272Z,71.4
2017-04-06T03:11:17.426Z,71.4
2017-04-06T03:12:19.772Z,71.3
2017-04-06T03:14:25.029Z,71.4
2017-04-06T03:15:27.576Z,71.3
2017-04-06T03:16:30.181Z,71.6
2017-04-06T03:17:32.530Z,71.2
2017-04-06T03:18:35.378Z,71.2
2017-04-06T03:19:37.725Z,71.3
2017-04-06T03:20:40.577Z,71.3
2017-04-06T03:21:43.729Z,71.5
2017-04-06T03:22:45.574Z,71.3
2017-04-06T03:23:48.424Z,71.2
2017-04-06T03:24:50.773Z,71.2
2017-04-06T03:25:53.622Z,71.2
2017-04-06T03:26:56.590Z,71.1
2017-04-06T03:27:58.941Z,70.9
2017-04-06T03:29:01.283Z,71
2017-04-06T03:30:04.131Z,71
2017-04-06T03:31:06.845Z,71.1
2017-04-06T03:32:09.443Z,70.9
2017-04-06T03:33:11.659Z,70.9
2017-04-06T03:34:14.510Z,70.9
2017-04-06T03:35:16.858Z,70.9
2017-04-06T03:36:19.706Z,71
2017-04-06T03:37:22.808Z,70.8
2017-04-06T03:39:27.562Z,70.6
2017-04-06T03:40:29.768Z,70.6
2017-04-06T03:41:33.179Z,70.5
2017-04-06T03:42:35.826Z,70.5
2017-04-06T03:43:38.181Z,70.4
2017-04-06T03:44:40.527Z,70.4
2017-04-06T03:45:43.372Z,70.4
2017-04-06T03:46:45.718Z,70.4
2017-04-06T03:47:49.389Z,70.4
2017-04-06T03:48:51.231Z,70.5
2017-04-06T03:49:53.578Z,70.4
2017-04-06T03:50:56.431Z,70.4
2017-04-06T03:51:58.779Z,70.3
2017-04-06T03:54:04.339Z,70.3
2017-04-06T03:56:09.091Z,70.4
2017-04-06T03:57:11.974Z,70.4
2017-04-06T03:58:14.197Z,70.6
2017-04-06T03:59:17.300Z,70.6
2017-04-06T04:00:19.647Z,70.6
2017-04-06T04:01:22.496Z,70.8
2017-04-06T04:02:24.848Z,70.6
2017-04-06T04:03:27.696Z,70.7
2017-04-06T04:04:30.300Z,70.7
2017-04-06T04:05:32.651Z,70.9
2017-04-06T04:06:35.365Z,70.9
2017-04-06T04:07:37.712Z,70.8
2017-04-06T04:08:40.558Z,70.8
2017-04-06T04:09:43.211Z,70.6
2017-04-06T04:10:45.565Z,70.7
2017-04-06T04:11:48.417Z,70.7
2017-04-06T04:12:50.766Z,70.9
2017-04-06T04:13:53.619Z,70.8
2017-04-06T04:14:56.266Z,70.7
2017-04-06T04:15:58.669Z,70.7
2017-04-06T04:17:01.519Z,70.9
2017-04-06T04:18:03.864Z,70.9
2017-04-06T04:19:06.712Z,70.8
2017-04-06T04:20:09.361Z,71
2017-04-06T04:21:11.705Z,71.1
2017-04-06T04:24:19.368Z,71.3
2017-04-06T04:25:22.466Z,71.5
2017-04-06T04:26:24.814Z,71.4
2017-04-06T04:27:27.664Z,71.4
2017-04-06T04:28:29.746Z,71.7
2017-04-06T04:29:32.602Z,72.1
2017-04-06T04:30:35.701Z,72.2
2017-04-06T04:31:38.048Z,72.2
2017-04-06T04:32:40.258Z,72.4
2017-04-06T04:33:43.106Z,72.2
2017-04-06T04:34:45.449Z,72.3
2017-04-06T04:35:48.556Z,72.5
2017-04-06T04:37:53.309Z,72.2
2017-04-06T04:38:56.022Z,72.6
2017-04-06T04:39:58.733Z,72.4
2017-04-06T04:41:01.382Z,72.3
2017-04-06T04:42:03.728Z,72.5
2017-04-06T04:43:06.584Z,72.5
2017-04-06T04:44:08.928Z,72.4
2017-04-06T04:45:11.781Z,72.8
2017-04-06T04:46:14.244Z,72.8
2017-04-06T04:47:16.829Z,72.7
2017-04-06T04:48:19.678Z,72.8
2017-04-06T04:49:21.885Z,73.2
2017-04-06T04:50:24.600Z,72.5
2017-04-06T04:51:27.712Z,72.9
2017-04-06T04:52:29.793Z,72.7
2017-04-06T04:53:32.646Z,72.6
2017-04-06T04:54:35.362Z,72.8
2017-04-06T04:55:37.712Z,72.9
2017-04-06T04:56:40.735Z,72.7
2017-04-06T04:57:43.082Z,72.4
2017-04-06T04:58:45.434Z,72.4
2017-04-06T04:59:48.284Z,72.5
2017-04-06T05:00:50.704Z,72.5
2017-04-06T05:01:53.388Z,72.3
2017-04-06T05:02:55.745Z,72.4
2017-04-06T05:03:58.598Z,72.4
2017-04-06T05:05:00.944Z,72.5
2017-04-06T05:06:03.850Z,72.1
2017-04-06T05:07:06.450Z,72.1
2017-04-06T05:08:08.736Z,72.1
2017-04-06T05:09:11.588Z,72.3
2017-04-06T05:10:13.931Z,72.3
2017-04-06T05:11:16.645Z,72
2017-04-06T05:12:19.751Z,72.1
2017-04-06T05:13:21.966Z,72.2
2017-04-06T05:14:24.681Z,72.1
2017-04-06T05:15:27.601Z,72.1
2017-04-06T05:16:29.810Z,71.8
2017-04-06T05:17:32.457Z,72
2017-04-06T05:18:34.801Z,71.8
2017-04-06T05:19:37.652Z,71.7
2017-04-06T05:20:40.368Z,71.6
2017-04-06T05:21:42.712Z,71.8
2017-04-06T05:22:45.872Z,71.7
2017-04-06T05:23:47.716Z,71.5
2017-04-06T05:24:50.568Z,71.1
2017-04-06T05:25:53.415Z,71.2
2017-04-06T05:26:55.626Z,71.2
2017-04-06T05:29:01.047Z,71.2
2017-04-06T05:31:06.310Z,71.1
2017-04-06T05:32:08.652Z,70.8
2017-04-06T05:33:11.227Z,70.7
2017-04-06T05:34:14.380Z,70.8
2017-04-06T05:35:16.731Z,70.5
2017-04-06T05:36:19.080Z,70.5
2017-04-06T05:37:21.790Z,70.6
2017-04-06T05:38:24.189Z,70.4
2017-04-06T05:39:27.341Z,70.5
2017-04-06T05:40:29.684Z,70.3
2017-04-06T05:41:32.035Z,70.3
2017-04-06T05:42:34.887Z,70.3
2017-04-06T05:43:37.233Z,70.3
2017-04-06T05:44:40.387Z,70.4
2017-04-06T05:45:42.732Z,70.4
2017-04-06T05:46:45.078Z,70.3
2017-04-06T05:47:47.968Z,70.3
2017-04-06T05:48:50.312Z,70
2017-04-06T05:49:53.414Z,70
2017-04-06T05:50:56.320Z,69.6
2017-04-06T05:51:58.164Z,69.5
2017-04-06T05:53:01.014Z,69.1
2017-04-06T05:54:03.363Z,68.2
2017-04-06T05:56:08.919Z,68.3
2017-04-06T05:58:13.669Z,68.7
2017-04-06T05:59:16.519Z,68.6
2017-04-06T06:00:18.730Z,68.5
2017-04-06T06:01:21.747Z,68.4
2017-04-06T06:02:23.958Z,68.3
2017-04-06T06:03:26.672Z,68.2
2017-04-06T06:04:29.522Z,68
2017-04-06T06:05:31.867Z,68.1
2017-04-06T06:06:34.884Z,68.2
2017-04-06T06:07:37.288Z,68.2
2017-04-06T06:08:39.632Z,68.1
2017-04-06T06:09:42.479Z,68.1
2017-04-06T06:10:45.189Z,68.1
2017-04-06T06:11:47.705Z,67.9
2017-04-06T06:12:50.063Z,67.5
2017-04-06T06:13:52.910Z,67.7
2017-04-06T06:14:55.622Z,67.8
2017-04-06T06:15:57.969Z,68.2
2017-04-06T06:17:01.069Z,68.2
2017-04-06T06:18:03.417Z,68.5
2017-04-06T06:19:05.765Z,68.4
2017-04-06T06:20:08.487Z,68.4
2017-04-06T06:21:10.828Z,68.5
2017-04-06T06:22:13.799Z,68.4
2017-04-06T06:23:16.150Z,68.4
2017-04-06T06:24:18.999Z,68.5
2017-04-06T06:25:21.343Z,68.6
2017-04-06T06:26:24.059Z,68.6
2017-04-06T06:27:27.210Z,68.6
2017-04-06T06:28:29.052Z,68.5
2017-04-06T06:29:31.904Z,68.2
2017-04-06T06:31:37.027Z,68.3
2017-04-06T06:32:40.129Z,68.2
2017-04-06T06:33:42.475Z,68.1
2017-04-06T06:34:44.688Z,68.2
2017-04-06T06:35:47.468Z,68
2017-04-06T06:36:50.181Z,67.9
2017-04-06T06:37:52.828Z,67.9
2017-04-06T06:38:55.734Z,67.5
2017-04-06T06:39:57.948Z,67.4
2017-04-06T06:41:00.293Z,67.1
2017-04-06T06:42:03.011Z,67.4
2017-04-06T06:43:06.127Z,66.9
2017-04-06T06:44:08.537Z,67.1
2017-04-06T06:45:10.888Z,67
2017-04-06T06:46:13.741Z,67.1
2017-04-06T06:47:16.085Z,66.9
2017-04-06T06:48:19.237Z,67
2017-04-06T06:49:22.142Z,66.9
2017-04-06T06:50:23.989Z,66.6
2017-04-06T06:51:26.199Z,66.4
2017-04-06T06:52:29.106Z,66.5
2017-04-06T06:53:32.257Z,66.7
2017-04-06T06:54:34.471Z,66.6
2017-04-06T06:55:36.818Z,66.7
2017-04-06T06:56:39.670Z,66.6
2017-04-06T06:57:42.012Z,66
2017-04-06T06:58:45.163Z,65.9
2017-04-06T06:59:47.378Z,65.9
2017-04-06T07:00:50.227Z,65.7
2017-04-06T07:01:52.441Z,65.4
2017-04-06T07:02:55.290Z,65.4
2017-04-06T07:03:58.519Z,65.6
2017-04-06T07:05:00.361Z,65.3
2017-04-06T07:06:03.214Z,65.4
2017-04-06T07:07:05.562Z,65.4
2017-04-06T07:08:08.280Z,65.1
2017-04-06T07:09:11.354Z,65.2
2017-04-06T07:11:16.104Z,64.6
2017-04-06T07:12:18.446Z,63.2
2017-04-06T07:13:21.298Z,63.1
2017-04-06T07:14:24.265Z,62.6
2017-04-06T07:15:26.608Z,62.9
2017-04-06T07:16:28.961Z,63.1
2017-04-06T07:18:34.214Z,62.8
2017-04-06T07:19:37.316Z,62.3
2017-04-06T07:20:39.664Z,62.4
2017-04-06T07:21:42.018Z,61.9
2017-04-06T07:22:44.873Z,62.5
2017-04-06T07:23:47.234Z,61.1
2017-04-06T07:24:50.393Z,60.4
2017-04-06T07:25:52.745Z,59.6
2017-04-06T07:26:55.089Z,59.9
2017-04-06T07:27:57.937Z,59.7
2017-04-06T07:29:00.287Z,59.1
2017-04-06T07:30:03.948Z,58.9
2017-04-06T07:32:08.826Z,59.6
2017-04-06T07:33:10.739Z,59.7
2017-04-06T07:34:13.599Z,59.9
2017-04-06T07:35:16.197Z,59.1
2017-04-06T07:36:18.911Z,59.5
2017-04-06T07:37:21.261Z,59.1
2017-04-06T07:38:24.113Z,58.3
2017-04-06T07:39:26.324Z,57.7
2017-04-06T07:40:29.425Z,56.5
2017-04-06T07:41:31.770Z,56.5
2017-04-06T07:42:34.357Z,56.9
2017-04-06T07:43:37.208Z,57.1
2017-04-06T07:44:39.558Z,56.7
2017-04-06T07:45:42.661Z,55.8
2017-04-06T07:47:47.411Z,55
2017-04-06T07:48:50.258Z,56.2
2017-04-06T07:49:52.602Z,55.5
2017-04-06T07:50:55.680Z,55.3
2017-04-06T07:51:58.026Z,54.8
2017-04-06T07:53:00.236Z,55.1
2017-04-06T07:54:03.089Z,55.6
2017-04-06T07:55:05.936Z,55.3
2017-04-06T07:56:08.401Z,55.8
2017-04-06T07:57:11.118Z,56.4
2017-04-06T07:58:14.532Z,57
2017-04-06T08:00:18.780Z,56.8
2017-04-06T08:01:21.934Z,56.2
2017-04-06T08:02:24.141Z,55.4
2017-04-06T08:03:26.725Z,55.1
2017-04-06T08:04:29.586Z,53.8
2017-04-06T08:05:32.304Z,54.3
2017-04-06T08:06:34.770Z,53.8
2017-04-06T08:07:37.485Z,53.7
2017-04-06T08:08:40.198Z,53.7
2017-04-06T08:09:42.542Z,53.2
2017-04-06T08:10:45.409Z,52.9
2017-04-06T08:11:48.447Z,52.8
2017-04-06T08:12:50.663Z,52.4
2017-04-06T08:13:53.011Z,51.8
2017-04-06T08:14:55.857Z,52.5
2017-04-06T08:15:58.199Z,52.8
2017-04-06T08:17:01.302Z,52.8
2017-04-06T08:18:03.653Z,52.7
2017-04-06T08:19:06.506Z,52.7
2017-04-06T08:20:08.854Z,53
2017-04-06T08:21:11.627Z,52.9
2017-04-06T08:22:14.646Z,53.6
2017-04-06T08:23:16.994Z,53.4
2017-04-06T08:24:19.206Z,52.8
2017-04-06T08:25:22.070Z,52.1
2017-04-06T08:26:24.785Z,51.8
2017-04-06T08:27:27.751Z,51.8
2017-04-06T08:28:30.100Z,52.1
2017-04-06T08:29:32.445Z,52.4
2017-04-06T08:30:35.293Z,52.1
2017-04-06T08:32:40.831Z,52.1
2017-04-06T08:33:43.177Z,52.3
2017-04-06T08:34:46.025Z,51.8
2017-04-06T08:35:48.369Z,51.8
2017-04-06T08:36:51.221Z,51.9
2017-04-06T08:37:53.872Z,51.3
2017-04-06T08:38:56.218Z,51.3
2017-04-06T08:39:59.071Z,51.4
2017-04-06T08:41:01.916Z,51.3
2017-04-06T08:42:04.263Z,51.8
2017-04-06T08:43:07.422Z,51.2
2017-04-06T08:44:09.862Z,50.8
2017-04-06T08:45:12.204Z,50.8
2017-04-06T08:46:15.054Z,50.4
2017-04-06T08:47:17.399Z,50.7
2017-04-06T08:48:20.563Z,50.3
2017-04-06T08:49:22.908Z,50.6
2017-04-06T08:50:25.286Z,51.2
2017-04-06T08:51:28.005Z,50.8
2017-04-06T08:52:30.738Z,50.8
2017-04-06T08:53:33.887Z,50.9
2017-04-06T08:54:36.240Z,50.7
2017-04-06T08:55:38.586Z,50
2017-04-06T08:56:41.438Z,50.6
2017-04-06T08:57:43.790Z,50.6
2017-04-06T08:58:46.945Z,49.1
2017-04-06T08:59:49.287Z,50
2017-04-06T09:00:52.136Z,50.4
2017-04-06T09:01:54.481Z,50.4
2017-04-06T09:02:57.327Z,50.9
2017-04-06T09:03:59.976Z,51.3
2017-04-06T09:05:02.191Z,51.3
2017-04-06T09:06:05.045Z,51.1
2017-04-06T09:07:07.895Z,51.2
2017-04-06T09:08:10.240Z,50.5
2017-04-06T09:09:13.952Z,50.3
2017-04-06T09:10:15.823Z,50.1
2017-04-06T09:11:18.036Z,49.5
2017-04-06T09:12:20.942Z,49.7
2017-04-06T09:13:23.787Z,49.5
2017-04-06T09:14:26.298Z,49.7
2017-04-06T09:15:29.044Z,49.5
2017-04-06T09:16:31.461Z,49.2
2017-04-06T09:17:34.314Z,48.8
2017-04-06T09:18:36.662Z,47.9
2017-04-06T09:19:40.371Z,48.5
2017-04-06T09:20:42.082Z,48.7
2017-04-06T09:21:44.665Z,48.9
2017-04-06T09:22:47.382Z,49.4
2017-04-06T09:23:50.098Z,49.5
2017-04-06T09:24:52.694Z,48.3
2017-04-06T09:25:55.545Z,48.5
2017-04-06T09:26:57.895Z,49.4
2017-04-06T09:28:00.611Z,50
2017-04-06T09:29:03.192Z,50
2017-04-06T09:30:06.294Z,50.1
2017-04-06T09:31:08.508Z,50.7
2017-04-06T09:33:13.821Z,51.1
2017-04-06T09:35:19.379Z,50.2
2017-04-06T09:36:21.594Z,49
2017-04-06T09:37:24.442Z,49
2017-04-06T09:38:27.299Z,49.5
2017-04-06T09:39:29.641Z,49.9
2017-04-06T09:40:32.614Z,50.2
2017-04-06T09:41:34.963Z,50.5
2017-04-06T09:42:37.820Z,50.7
2017-04-06T09:43:40.532Z,50.4
2017-04-06T09:44:43.676Z,50.5
2017-04-06T09:45:45.771Z,50.1
2017-04-06T09:46:48.117Z,49.3
2017-04-06T09:48:53.380Z,49.7
2017-04-06T09:49:56.230Z,50
2017-04-06T09:50:58.832Z,49.1
2017-04-06T09:52:01.683Z,48
2017-04-06T09:53:04.031Z,47.5
2017-04-06T09:54:06.948Z,47.7
2017-04-06T09:55:09.295Z,48.1
2017-04-06T09:56:12.444Z,48.7
2017-04-06T09:57:14.788Z,49.2
2017-04-06T09:58:17.135Z,50.1
2017-04-06T09:59:19.980Z,50.5
2017-04-06T10:00:22.751Z,48.5
2017-04-06T10:01:25.356Z,48
2017-04-06T10:02:27.697Z,47.1
2017-04-06T10:03:30.781Z,45.9
2017-04-06T10:04:33.142Z,46
2017-04-06T10:05:35.997Z,47.2
2017-04-06T10:06:39.014Z,48
2017-04-06T10:07:41.226Z,48.6
2017-04-06T10:08:43.567Z,48.6
2017-04-06T10:09:46.151Z,48.5
2017-04-06T10:10:48.996Z,48
2017-04-06T10:11:52.014Z,46.6
2017-04-06T10:12:54.359Z,46.9
2017-04-06T10:13:57.215Z,47.3
2017-04-06T10:14:59.596Z,47.5
2017-04-06T10:16:02.308Z,48.2
2017-04-06T10:17:05.277Z,48.4
2017-04-06T10:18:07.489Z,48.2
2017-04-06T10:19:10.896Z,48.3
2017-04-06T10:20:12.738Z,48.2
2017-04-06T10:21:15.594Z,48.4
2017-04-06T10:22:18.062Z,49
2017-04-06T10:23:20.972Z,49
2017-04-06T10:24:23.192Z,49
2017-04-06T10:25:26.064Z,49
2017-04-06T10:26:28.784Z,47.5
2017-04-06T10:27:31.672Z,46.5
2017-04-06T10:28:34.019Z,46.3
2017-04-06T10:29:36.423Z,46.9
2017-04-06T10:30:39.278Z,47.1
2017-04-06T10:31:42.688Z,46.8
2017-04-06T10:32:44.782Z,47.3
2017-04-06T10:33:47.129Z,46.6
2017-04-06T10:34:49.984Z,46.7
2017-04-06T10:35:52.639Z,46.4
2017-04-06T10:36:54.989Z,45.6
2017-04-06T10:37:58.144Z,45.3
2017-04-06T10:39:00.494Z,45.6
2017-04-06T10:40:02.842Z,46.2
2017-04-06T10:41:05.562Z,45.3
2017-04-06T10:42:08.413Z,45.1
2017-04-06T10:43:11.381Z,45.5
2017-04-06T10:44:13.731Z,46.1
2017-04-06T10:45:16.078Z,45.3
2017-04-06T10:46:18.932Z,43.6
2017-04-06T10:47:21.644Z,43.8
2017-04-06T10:48:24.172Z,44.1
2017-04-06T10:49:27.021Z,44.9
2017-04-06T10:50:29.369Z,45.5
2017-04-06T10:51:32.213Z,45.4
2017-04-06T10:52:34.929Z,44.5
2017-04-06T10:53:37.574Z,44.6
2017-04-06T10:54:40.324Z,44.7
2017-04-06T10:55:42.594Z,45
2017-04-06T10:56:45.447Z,45.4
2017-04-06T10:57:48.293Z,45.7
2017-04-06T10:58:51.512Z,45.7
2017-04-06T10:59:53.352Z,45.7
2017-04-06T11:00:56.073Z,46
2017-04-06T11:01:58.422Z,46.4
2017-04-06T11:03:01.277Z,46.4
2017-04-06T11:04:04.442Z,44
2017-04-06T11:05:06.800Z,44.1
2017-04-06T11:06:09.143Z,43.9
2017-04-06T11:07:11.856Z,43.4
2017-04-06T11:08:14.707Z,43.9
2017-04-06T11:09:17.916Z,44.4
2017-04-06T11:10:19.764Z,45.1
2017-04-06T11:11:22.612Z,45.2
2017-04-06T11:12:24.980Z,45.4
2017-04-06T11:13:27.834Z,45.8
2017-04-06T11:14:30.983Z,45.7
2017-04-06T11:15:33.211Z,45.8
2017-04-06T11:16:35.927Z,45.8
2017-04-06T11:18:41.188Z,44.1
2017-04-06T11:19:44.396Z,44.4
2017-04-06T11:20:46.239Z,43.6
2017-04-06T11:21:49.093Z,42.5
2017-04-06T11:22:51.442Z,40.9
2017-04-06T11:23:54.297Z,41.3
2017-04-06T11:24:57.395Z,41.7
2017-04-06T11:25:59.742Z,42.7
2017-04-06T11:27:01.959Z,43.4
2017-04-06T11:28:04.815Z,43.7
2017-04-06T11:29:07.662Z,43.9
2017-04-06T11:30:10.177Z,44
2017-04-06T11:31:12.890Z,44.6
2017-04-06T11:32:15.744Z,44.3
2017-04-06T11:33:18.097Z,44
2017-04-06T11:34:20.948Z,44
2017-04-06T11:35:24.155Z,42.9
2017-04-06T11:36:25.999Z,42.8
2017-04-06T11:37:28.846Z,43.5
2017-04-06T11:38:31.201Z,43
2017-04-06T11:39:34.050Z,42.6
2017-04-06T11:40:37.202Z,42.3
2017-04-06T11:41:39.548Z,43
2017-04-06T11:43:44.799Z,41.7
2017-04-06T11:44:47.149Z,41.8
2017-04-06T11:45:50.251Z,41
2017-04-06T11:46:52.594Z,40.7
2017-04-06T11:47:55.442Z,40.3
2017-04-06T11:48:57.854Z,40
2017-04-06T11:50:00.708Z,40.3
2017-04-06T11:51:03.308Z,41.2
2017-04-06T11:52:06.158Z,41.4
2017-04-06T11:53:08.504Z,41.5
2017-04-06T11:54:11.359Z,42
2017-04-06T11:55:13.704Z,41.5
2017-04-06T11:56:16.806Z,40.1
2017-04-06T11:57:19.017Z,40.6
2017-04-06T11:58:21.872Z,41
2017-04-06T11:59:24.718Z,40.8
2017-04-06T12:00:26.970Z,40.9
2017-04-06T12:01:30.072Z,41.1
2017-04-06T12:02:32.205Z,41.3
2017-04-06T12:03:35.052Z,40.9
2017-04-06T12:04:37.900Z,40.5
2017-04-06T12:05:40.242Z,41
2017-04-06T12:06:43.258Z,41.4
2017-04-06T12:07:45.600Z,41.3
2017-04-06T12:08:48.448Z,40.7
2017-04-06T12:09:51.297Z,40.5
2017-04-06T12:10:53.643Z,40.9
2017-04-06T12:11:56.800Z,41.3
2017-04-06T12:12:59.149Z,41.6
2017-04-06T12:14:02.000Z,42
2017-04-06T12:15:04.348Z,42.1
2017-04-06T12:16:07.204Z,41.2
2017-04-06T12:17:09.860Z,41.1
2017-04-06T12:18:12.208Z,41.2
2017-04-06T12:19:15.064Z,39.2
2017-04-06T12:20:17.483Z,39
2017-04-06T12:21:20.338Z,37.8
2017-04-06T12:22:23.915Z,38.6
2017-04-06T12:23:25.760Z,38.4
2017-04-06T12:24:28.107Z,38.1
2017-04-06T12:25:30.957Z,38.3
2017-04-06T12:26:33.677Z,39
2017-04-06T12:27:36.641Z,39.6
2017-04-06T12:28:38.986Z,40.3
2017-04-06T12:29:41.852Z,40.5
2017-04-06T12:30:44.197Z,40.6
2017-04-06T12:31:47.048Z,40.3
2017-04-06T12:32:50.013Z,41
2017-04-06T12:33:52.920Z,41
2017-04-06T12:34:54.761Z,41
2017-04-06T12:35:57.616Z,41.4
2017-04-06T12:38:03.177Z,39.9
2017-04-06T12:39:05.525Z,40
2017-04-06T12:40:09.005Z,40.4
2017-04-06T12:41:10.845Z,40.6
2017-04-06T12:43:16.769Z,40.5
2017-04-06T12:44:19.112Z,40.3
2017-04-06T12:45:21.458Z,40.3
2017-04-06T12:47:26.580Z,40.4
2017-04-06T12:48:29.685Z,41
2017-04-06T12:49:32.036Z,38.3
2017-04-06T12:50:34.757Z,38.6
2017-04-06T12:51:37.472Z,38.4
2017-04-06T12:52:40.189Z,38.3
2017-04-06T12:53:43.343Z,38.6
2017-04-06T12:54:45.685Z,38.7
2017-04-06T12:55:47.897Z,38.4
2017-04-06T12:56:50.753Z,38
2017-04-06T12:57:53.474Z,37.2
2017-04-06T12:58:56.630Z,37.6
2017-04-06T12:59:58.860Z,37
2017-04-06T13:01:01.709Z,37.6
2017-04-06T13:03:06.963Z,37.3
2017-04-06T13:04:09.619Z,36.5
2017-04-06T13:05:11.964Z,36.1
2017-04-06T13:06:14.814Z,37.3
2017-04-06T13:07:17.664Z,37.8
2017-04-06T13:08:19.884Z,37.6
2017-04-06T13:09:23.039Z,37.6
2017-04-06T13:10:25.391Z,38.1
2017-04-06T13:11:28.302Z,38.4
2017-04-06T13:12:31.018Z,38.4
2017-04-06T13:13:33.248Z,38.1
2017-04-06T13:14:36.399Z,37.8
2017-04-06T13:15:38.746Z,37.2
2017-04-06T13:16:41.468Z,37.6
2017-04-06T13:17:44.315Z,37.7
2017-04-06T13:18:46.698Z,37.7
2017-04-06T13:19:49.798Z,37.8
2017-04-06T13:20:52.380Z,38
2017-04-06T13:21:54.732Z,38.3
2017-04-06T13:22:57.451Z,37.8
2017-04-06T13:24:00.305Z,37.4
2017-04-06T13:25:02.960Z,37.8
2017-04-06T13:26:05.679Z,37.2
2017-04-06T13:27:08.031Z,37.7
2017-04-06T13:28:10.887Z,37.7
2017-04-06T13:29:13.736Z,38.4
2017-04-06T13:30:16.333Z,37.7
2017-04-06T13:31:19.048Z,37.2
2017-04-06T13:32:21.394Z,38.2
2017-04-06T13:33:24.239Z,37.9
2017-04-06T13:34:26.960Z,38.6
2017-04-06T13:35:29.928Z,38.4
2017-04-06T13:36:32.273Z,38.7
2017-04-06T13:37:35.124Z,38.5
2017-04-06T13:38:37.470Z,38.4
2017-04-06T13:39:40.318Z,38.4
2017-04-06T13:40:42.970Z,38.1
2017-04-06T13:41:45.819Z,38.2
2017-04-06T13:42:48.042Z,38
2017-04-06T13:43:50.896Z,38
2017-04-06T13:44:53.610Z,38.2
2017-04-06T13:45:56.446Z,38.7
2017-04-06T13:46:58.793Z,38.6
2017-04-06T13:48:01.704Z,39.2
2017-04-06T13:49:04.052Z,39.7
2017-04-06T13:51:09.677Z,40.2
2017-04-06T13:52:12.032Z,40.3
2017-04-06T13:53:14.748Z,40.4
2017-04-06T13:54:17.595Z,40.7
2017-04-06T13:55:20.441Z,40.9
2017-04-06T13:56:23.089Z,41.3
2017-04-06T13:57:25.437Z,41.4
2017-04-06T13:58:28.287Z,40.8
2017-04-06T13:59:30.998Z,40.8
2017-04-06T14:00:33.716Z,40.1
2017-04-06T14:01:36.682Z,39.2
2017-04-06T14:02:39.033Z,38.7
2017-04-06T14:03:41.886Z,38.2
2017-04-06T14:04:44.232Z,38.6
2017-04-06T14:05:47.083Z,38.8
2017-04-06T14:06:50.612Z,38.8
2017-04-06T14:07:52.455Z,38.9
2017-04-06T14:08:54.798Z,38
2017-04-06T14:09:57.682Z,38.5
2017-04-06T14:11:00.532Z,36.3
2017-04-06T14:12:03.243Z,36.6
2017-04-06T14:13:05.592Z,37
2017-04-06T14:14:08.449Z,37.3
2017-04-06T14:15:10.859Z,36.7
2017-04-06T14:16:13.712Z,36.2
2017-04-06T14:17:16.734Z,36.1
2017-04-06T14:18:19.085Z,36.5
2017-04-06T14:20:24.341Z,37.1
2017-04-06T14:21:27.191Z,37.5
2017-04-06T14:22:30.209Z,37.1
2017-04-06T14:23:32.417Z,37.1
2017-04-06T14:24:34.829Z,37.2
2017-04-06T14:25:37.683Z,37.9
2017-04-06T14:26:40.397Z,37.3
2017-04-06T14:27:43.611Z,37.1
2017-04-06T14:28:45.879Z,37.2
2017-04-06T14:29:48.222Z,37.4
2017-04-06T14:30:51.075Z,37.1
2017-04-06T14:31:53.925Z,37.4
2017-04-06T14:33:59.492Z,37
2017-04-06T14:35:01.860Z,36.5
2017-04-06T14:36:04.710Z,36.5